createdAt,value
2019-05-20T00:00:00.239Z,23.00
2019-05-20T00:02:28.798Z,20.50
2019-05-20T00:04:57.349Z,23.30
2019-05-20T00:07:25.940Z,20.37
2019-05-20T00:09:54.515Z,23.53
2019-05-20T00:12:23.071Z,20.87
2019-05-20T00:14:51.642Z,20.67
2019-05-20T00:17:20.183Z,21.20
2019-05-20T00:19:50.753Z,22.60
2019-05-20T00:22:20.176Z,22.10
2019-05-20T00:24:48.696Z,28.60
2019-05-20T00:27:17.217Z,20.63
2019-05-20T00:29:45.789Z,19.80
2019-05-20T00:32:14.295Z,23.57
2019-05-20T00:34:42.778Z,22.97
2019-05-20T00:37:11.290Z,26.10
2019-05-20T00:39:39.868Z,26.93
2019-05-20T00:42:08.450Z,21.47
2019-05-20T00:44:36.945Z,20.57
2019-05-20T00:47:05.582Z,22.47
2019-05-20T00:49:34.077Z,24.37
2019-05-20T00:52:02.730Z,25.73
2019-05-20T00:54:31.238Z,23.53
2019-05-20T00:56:59.762Z,23.47
2019-05-20T00:59:28.335Z,25.33
2019-05-20T01:01:56.929Z,27.47
2019-05-20T01:04:25.499Z,24.63
2019-05-20T01:06:54.008Z,23.60
2019-05-20T01:09:22.491Z,26.47
2019-05-20T01:11:51.050Z,22.27
2019-05-20T01:14:19.720Z,21.53
2019-05-20T01:16:48.780Z,24.90
2019-05-20T01:19:17.315Z,26.40
2019-05-20T01:21:45.876Z,22.00
2019-05-20T01:24:14.538Z,22.87
2019-05-20T01:26:43.114Z,22.33
2019-05-20T01:29:11.666Z,25.70
2019-05-20T01:31:40.160Z,24.47
2019-05-20T01:34:08.636Z,28.57
2019-05-20T01:36:37.172Z,24.17
2019-05-20T01:39:07.014Z,22.97
2019-05-20T01:41:35.607Z,27.20
2019-05-20T01:44:04.418Z,26.13
2019-05-20T01:46:33.000Z,21.53
2019-05-20T01:49:01.522Z,25.40
2019-05-20T01:51:30.115Z,23.50
2019-05-20T01:53:58.671Z,24.90
2019-05-20T01:56:27.273Z,23.67
2019-05-20T01:58:57.372Z,22.13
2019-05-20T02:01:26.016Z,21.40
2019-05-20T02:03:54.561Z,32.30
2019-05-20T02:06:23.071Z,25.80
2019-05-20T02:08:51.563Z,28.60
2019-05-20T02:11:20.170Z,22.00
2019-05-20T02:13:53.334Z,22.60
2019-05-20T02:16:23.861Z,24.57
2019-05-20T02:18:52.347Z,26.10
2019-05-20T02:21:20.975Z,25.13
2019-05-20T02:23:49.507Z,24.50
2019-05-20T02:26:18.038Z,24.70
2019-05-20T02:28:46.601Z,25.47
2019-05-20T02:31:15.106Z,26.57
2019-05-20T02:33:51.874Z,26.73
2019-05-20T02:36:13.879Z,25.37
2019-05-20T02:38:42.428Z,24.53
2019-05-20T02:41:10.977Z,21.80
2019-05-20T02:43:39.736Z,24.10
2019-05-20T02:46:08.365Z,25.33
2019-05-20T02:48:37.135Z,24.40
2019-05-20T02:51:05.742Z,26.27
2019-05-20T02:53:34.417Z,25.50
2019-05-20T02:56:03.041Z,24.53
2019-05-20T02:58:31.699Z,25.63
2019-05-20T03:01:00.267Z,25.10
2019-05-20T03:03:28.851Z,24.77
2019-05-20T03:05:57.455Z,22.67
2019-05-20T03:08:26.047Z,27.30
2019-05-20T03:10:54.645Z,26.77
2019-05-20T03:13:23.221Z,22.20
2019-05-20T03:15:51.883Z,22.90
2019-05-20T03:18:20.521Z,26.23
2019-05-20T03:20:49.082Z,25.83
2019-05-20T03:23:17.651Z,26.37
2019-05-20T03:25:46.349Z,27.53
2019-05-20T03:28:14.980Z,23.73
2019-05-20T03:30:43.898Z,27.50
2019-05-20T03:33:12.594Z,27.30
2019-05-20T03:35:41.130Z,27.33
2019-05-20T03:38:09.684Z,25.37
2019-05-20T03:40:38.288Z,24.03
2019-05-20T03:43:06.867Z,26.00
2019-05-20T03:45:35.449Z,25.40
2019-05-20T03:48:04.093Z,23.53
2019-05-20T03:50:32.592Z,25.40
2019-05-20T03:53:01.169Z,24.40
2019-05-20T03:55:29.730Z,26.80
2019-05-20T03:57:58.242Z,24.20
2019-05-20T04:00:47.466Z,29.03
2019-05-20T04:03:17.047Z,26.67
2019-05-20T04:05:45.631Z,21.70
2019-05-20T04:08:14.216Z,25.80
2019-05-20T04:10:42.913Z,22.13
2019-05-20T04:13:11.496Z,23.30
2019-05-20T04:15:40.053Z,24.73
2019-05-20T04:18:08.639Z,29.40
2019-05-20T04:20:37.194Z,24.17
2019-05-20T04:23:05.829Z,20.73
2019-05-20T04:25:34.398Z,22.00
2019-05-20T04:28:03.068Z,21.03
2019-05-20T04:30:31.549Z,21.20
2019-05-20T04:33:00.118Z,20.47
2019-05-20T04:35:28.678Z,19.40
2019-05-20T04:37:57.290Z,23.23
2019-05-20T04:40:26.877Z,27.10
2019-05-20T04:42:55.455Z,25.50
2019-05-20T04:45:24.030Z,22.20
2019-05-20T04:47:52.640Z,23.17
2019-05-20T04:50:21.205Z,21.87
2019-05-20T04:52:49.777Z,21.03
2019-05-20T04:55:18.336Z,24.40
2019-05-20T04:57:46.903Z,31.40
2019-05-20T05:00:17.431Z,21.53
2019-05-20T05:02:46.028Z,21.27
2019-05-20T05:05:14.666Z,23.87
2019-05-20T05:07:43.159Z,20.83
2019-05-20T05:10:12.971Z,23.37
2019-05-20T05:12:41.634Z,21.70
2019-05-20T05:15:11.045Z,22.07
2019-05-20T05:17:39.592Z,23.90
2019-05-20T05:20:17.693Z,21.17
2019-05-20T05:22:39.202Z,22.10
2019-05-20T05:25:07.855Z,23.47
2019-05-20T05:27:36.472Z,23.90
2019-05-20T05:30:08.747Z,22.70
2019-05-20T05:32:43.694Z,25.10
2019-05-20T05:35:17.836Z,22.07
2019-05-20T05:37:46.503Z,22.30
2019-05-20T05:40:15.512Z,27.07
2019-05-20T05:42:44.117Z,19.33
2019-05-20T05:45:14.148Z,21.27
2019-05-20T05:47:42.624Z,18.57
2019-05-20T05:50:11.423Z,20.57
2019-05-20T05:52:40.166Z,19.67
2019-05-20T05:55:08.891Z,18.77
2019-05-20T05:57:37.437Z,24.20
2019-05-20T06:00:07.669Z,22.20
2019-05-20T06:02:41.168Z,20.93
2019-05-20T06:05:07.441Z,22.00
2019-05-20T06:07:39.262Z,23.73
2019-05-20T06:10:08.079Z,22.37
2019-05-20T06:12:36.650Z,18.27
2019-05-20T06:15:08.731Z,19.60
2019-05-20T06:17:37.377Z,18.40
2019-05-20T06:20:07.043Z,16.00
2019-05-20T06:22:35.573Z,15.90
2019-05-20T06:25:05.332Z,24.00
2019-05-20T06:27:33.904Z,22.10
2019-05-20T06:30:02.413Z,21.63
2019-05-20T06:32:30.995Z,17.33
2019-05-20T06:34:59.575Z,20.20
2019-05-20T06:37:32.788Z,15.43
2019-05-20T06:40:01.384Z,22.07
2019-05-20T06:42:29.960Z,15.30
2019-05-20T06:44:58.848Z,17.10
2019-05-20T06:47:27.611Z,18.30
2019-05-20T06:49:56.186Z,20.20
2019-05-20T06:52:35.405Z,18.17
2019-05-20T06:54:54.913Z,19.73
2019-05-20T06:57:23.981Z,14.83
2019-05-20T06:59:52.721Z,19.33
2019-05-20T07:02:21.251Z,15.50
2019-05-20T07:04:49.772Z,19.57
2019-05-20T07:07:21.325Z,14.27
2019-05-20T07:09:48.559Z,15.37
2019-05-20T07:12:17.061Z,14.70
2019-05-20T07:14:45.650Z,13.20
2019-05-20T07:17:14.221Z,17.80
2019-05-20T07:19:42.790Z,15.17
2019-05-20T07:22:11.360Z,18.20
2019-05-20T07:24:39.842Z,15.37
2019-05-20T07:27:09.131Z,15.10
2019-05-20T07:29:37.637Z,13.37
2019-05-20T07:32:06.310Z,25.63
2019-05-20T07:34:34.869Z,13.10
2019-05-20T07:37:04.177Z,12.87
2019-05-20T07:39:32.832Z,11.47
2019-05-20T07:42:01.403Z,12.60
2019-05-20T07:44:29.896Z,15.43
2019-05-20T07:46:58.482Z,12.50
2019-05-20T07:49:27.369Z,15.70
2019-05-20T07:51:56.838Z,11.27
2019-05-20T07:54:26.331Z,10.20
2019-05-20T07:56:57.231Z,12.47
2019-05-20T07:59:28.228Z,12.13
2019-05-20T08:01:56.822Z,12.03
2019-05-20T08:04:25.541Z,12.30
2019-05-20T08:06:54.138Z,10.17
2019-05-20T08:09:22.619Z,11.03
2019-05-20T08:11:51.204Z,9.30
2019-05-20T08:14:19.767Z,9.73
2019-05-20T08:16:48.348Z,15.00
2019-05-20T08:19:16.957Z,9.60
2019-05-20T08:21:45.504Z,10.43
2019-05-20T08:24:14.079Z,8.10
2019-05-20T08:26:42.698Z,24.13
2019-05-20T08:29:11.318Z,9.27
2019-05-20T08:31:39.886Z,11.33
2019-05-20T08:34:08.476Z,8.37
2019-05-20T08:36:37.006Z,8.10
2019-05-20T08:39:07.870Z,8.17
2019-05-20T08:41:37.130Z,6.73
2019-05-20T08:44:05.678Z,9.43
2019-05-20T08:46:34.252Z,6.70
2019-05-20T08:49:02.826Z,7.07
2019-05-20T08:51:31.442Z,7.87
2019-05-20T08:54:00.010Z,9.40
2019-05-20T08:56:28.832Z,7.53
2019-05-20T08:58:57.422Z,6.43
2019-05-20T09:01:27.548Z,7.57
2019-05-20T09:03:56.078Z,9.60
2019-05-20T09:06:24.654Z,6.37
2019-05-20T09:08:53.222Z,6.30
2019-05-20T09:11:24.984Z,5.60
2019-05-20T09:13:53.492Z,4.90
2019-05-20T09:16:22.113Z,5.70
2019-05-20T09:18:50.742Z,5.77
2019-05-20T09:21:19.297Z,8.47
2019-05-20T09:23:47.850Z,5.17
2019-05-20T09:26:16.522Z,5.40
2019-05-20T09:28:45.124Z,4.83
2019-05-20T09:31:13.866Z,5.40
2019-05-20T09:33:42.731Z,4.97
2019-05-20T09:36:11.432Z,4.50
2019-05-20T09:38:39.985Z,4.80
2019-05-20T09:41:08.565Z,4.70
2019-05-20T09:43:38.881Z,4.90
2019-05-20T09:46:08.489Z,4.17
2019-05-20T09:48:37.394Z,5.60
2019-05-20T09:51:05.923Z,4.60
2019-05-20T09:53:34.487Z,5.17
2019-05-20T09:56:03.089Z,4.67
2019-05-20T09:58:31.634Z,5.17
2019-05-20T10:01:00.159Z,5.93
2019-05-20T10:03:28.691Z,6.33
2019-05-20T10:05:57.278Z,8.53
2019-05-20T10:08:37.645Z,9.17
2019-05-20T10:10:59.606Z,5.13
2019-05-20T10:13:26.254Z,4.80
2019-05-20T10:15:54.873Z,5.60
2019-05-20T10:18:36.555Z,4.50
2019-05-20T10:20:53.662Z,5.67
2019-05-20T10:23:22.218Z,7.63
2019-05-20T10:25:50.788Z,6.00
2019-05-20T10:28:19.334Z,4.30
2019-05-20T10:30:47.892Z,6.40
2019-05-20T10:33:16.393Z,5.63
2019-05-20T10:35:45.029Z,4.30
2019-05-20T10:38:13.606Z,4.70
2019-05-20T10:40:42.805Z,4.53
2019-05-20T10:43:11.365Z,4.80
2019-05-20T10:45:39.922Z,7.50
2019-05-20T10:48:09.132Z,6.63
2019-05-20T10:50:37.909Z,5.30
2019-05-20T10:53:06.577Z,5.90
2019-05-20T10:55:35.125Z,5.87
2019-05-20T10:58:03.896Z,5.23
2019-05-20T11:00:32.753Z,8.73
2019-05-20T11:03:01.292Z,5.70
2019-05-20T11:05:29.896Z,10.03
2019-05-20T11:07:58.543Z,7.63
2019-05-20T11:10:27.231Z,8.70
2019-05-20T11:12:55.797Z,5.07
2019-05-20T11:15:24.361Z,5.10
2019-05-20T11:17:52.945Z,9.00
2019-05-20T11:20:22.274Z,8.20
2019-05-20T11:22:50.901Z,6.30
2019-05-20T11:25:20.963Z,5.93
2019-05-20T11:27:49.591Z,6.47
2019-05-20T11:30:18.393Z,6.50
2019-05-20T11:32:46.970Z,7.23
2019-05-20T11:35:16.811Z,6.20
2019-05-20T11:37:45.474Z,8.63
2019-05-20T11:40:14.895Z,6.20
2019-05-20T11:42:43.738Z,8.67
2019-05-20T11:45:13.976Z,6.23
2019-05-20T11:47:42.579Z,9.93
2019-05-20T11:50:11.989Z,6.67
2019-05-20T11:52:40.582Z,6.47
2019-05-20T11:55:10.252Z,7.10
2019-05-20T11:57:38.913Z,6.43
2019-05-20T12:00:09.971Z,6.40
2019-05-20T12:02:42.184Z,5.80
2019-05-20T12:05:10.809Z,6.87
2019-05-20T12:07:39.399Z,7.10
2019-05-20T12:10:09.902Z,5.90
2019-05-20T12:12:38.626Z,6.27
2019-05-20T12:15:09.491Z,7.37
2019-05-20T12:17:37.999Z,6.40
2019-05-20T12:20:11.891Z,6.30
2019-05-20T12:22:39.584Z,7.20
2019-05-20T12:25:08.481Z,5.03
2019-05-20T12:27:37.069Z,6.90
2019-05-20T12:30:07.769Z,6.80
2019-05-20T12:32:37.343Z,11.13
2019-05-20T12:35:07.563Z,7.33
2019-05-20T12:37:36.129Z,8.47
2019-05-20T12:40:08.259Z,6.63
2019-05-20T12:42:37.169Z,6.73
2019-05-20T12:45:09.932Z,9.63
2019-05-20T12:47:38.694Z,9.83
2019-05-20T12:50:08.106Z,6.80
2019-05-20T12:52:36.766Z,6.53
2019-05-20T12:55:09.528Z,6.10
2019-05-20T12:57:36.906Z,8.37
2019-05-20T13:00:13.785Z,7.60
2019-05-20T13:02:42.664Z,6.80
2019-05-20T13:05:11.876Z,7.07
2019-05-20T13:07:40.437Z,7.50
2019-05-20T13:10:26.546Z,9.03
2019-05-20T13:12:40.429Z,8.17
2019-05-20T13:15:10.139Z,7.50
2019-05-20T13:17:43.849Z,6.97
2019-05-20T13:20:09.143Z,7.27
2019-05-20T13:22:37.727Z,8.60
2019-05-20T13:25:06.571Z,6.50
2019-05-20T13:27:35.130Z,7.97
2019-05-20T13:30:07.562Z,9.50
2019-05-20T13:32:36.224Z,12.37
2019-05-20T13:35:06.417Z,8.40
2019-05-20T13:37:35.004Z,8.23
2019-05-20T13:40:05.101Z,11.43
2019-05-20T13:42:33.701Z,7.50
2019-05-20T13:45:02.298Z,9.53
2019-05-20T13:47:30.884Z,7.70
2019-05-20T13:49:59.404Z,11.93
2019-05-20T13:52:28.099Z,11.73
2019-05-20T13:54:56.643Z,12.23
2019-05-20T13:57:25.248Z,11.70
2019-05-20T13:59:53.841Z,9.90
2019-05-20T14:02:22.385Z,11.87
2019-05-20T14:04:50.944Z,9.43
2019-05-20T14:07:19.468Z,19.00
2019-05-20T14:09:48.029Z,10.50
2019-05-20T14:12:16.574Z,10.23
2019-05-20T14:14:45.160Z,9.17
2019-05-20T14:17:13.735Z,8.53
2019-05-20T14:19:42.427Z,13.50
2019-05-20T14:22:11.016Z,13.70
2019-05-20T14:24:39.626Z,12.70
2019-05-20T14:27:08.202Z,14.80
2019-05-20T14:29:36.807Z,9.23
2019-05-20T14:32:05.492Z,9.63
2019-05-20T14:34:34.086Z,13.13
2019-05-20T14:37:02.609Z,11.60
2019-05-20T14:39:31.262Z,11.60
2019-05-20T14:41:59.854Z,12.30
2019-05-20T14:44:28.426Z,17.93
2019-05-20T14:46:56.980Z,14.43
2019-05-20T14:49:25.560Z,15.37
2019-05-20T14:51:54.213Z,16.10
2019-05-20T14:54:22.841Z,16.63
2019-05-20T14:56:51.412Z,16.50
2019-05-20T14:59:19.943Z,15.33
2019-05-20T15:01:48.515Z,15.93
2019-05-20T15:04:17.151Z,16.67
2019-05-20T15:06:45.755Z,12.60
2019-05-20T15:09:14.365Z,16.47
2019-05-20T15:11:42.967Z,13.20
2019-05-20T15:14:11.561Z,23.83
2019-05-20T15:16:40.162Z,21.07
2019-05-20T15:19:08.789Z,15.50
2019-05-20T15:21:37.465Z,13.50
2019-05-20T15:24:06.101Z,15.30
2019-05-20T15:26:34.698Z,17.40
2019-05-20T15:29:04.328Z,19.77
2019-05-20T15:31:33.460Z,15.20
2019-05-20T15:34:02.132Z,18.97
2019-05-20T15:36:31.965Z,17.50
2019-05-20T15:39:00.633Z,21.40
2019-05-20T15:41:29.276Z,11.13
2019-05-20T15:43:57.835Z,6.20
2019-05-20T15:46:26.459Z,7.60
2019-05-20T15:48:55.015Z,3.23
2019-05-20T15:51:23.616Z,3.37
2019-05-20T15:53:52.219Z,7.47
2019-05-20T15:56:20.823Z,8.27
2019-05-20T15:58:49.528Z,6.60
2019-05-20T16:01:18.107Z,12.03
2019-05-20T16:03:50.535Z,9.30
2019-05-20T16:06:16.938Z,9.13
2019-05-20T16:08:45.489Z,9.10
2019-05-20T16:11:14.032Z,5.80
2019-05-20T16:13:42.651Z,14.43
2019-05-20T16:16:13.126Z,11.87
2019-05-20T16:18:41.492Z,8.40
2019-05-20T16:21:10.102Z,13.10
2019-05-20T16:23:38.762Z,8.80
2019-05-20T16:26:07.426Z,12.43
2019-05-20T16:28:35.994Z,8.90
2019-05-20T16:31:04.685Z,5.13
2019-05-20T16:33:33.276Z,8.37
2019-05-20T16:36:02.062Z,19.30
2019-05-20T16:38:30.602Z,8.37
2019-05-20T16:40:59.303Z,6.30
2019-05-20T16:43:27.882Z,9.30
2019-05-20T16:45:56.500Z,9.97
2019-05-20T16:48:25.122Z,6.43
2019-05-20T16:50:56.424Z,14.77
2019-05-20T16:53:25.075Z,10.90
2019-05-20T16:55:53.731Z,6.00
2019-05-20T16:58:22.405Z,9.73
2019-05-20T17:00:51.103Z,9.50
2019-05-20T17:03:20.892Z,8.40
2019-05-20T17:05:49.547Z,15.43
2019-05-20T17:08:18.137Z,12.47
2019-05-20T17:10:46.807Z,11.17
2019-05-20T17:13:15.416Z,13.60
2019-05-20T17:15:44.693Z,13.53
2019-05-20T17:18:14.876Z,15.03
2019-05-20T17:20:45.924Z,13.77
2019-05-20T17:23:13.978Z,13.70
2019-05-20T17:25:42.606Z,18.37
2019-05-20T17:28:11.325Z,13.53
2019-05-20T17:30:45.515Z,12.80
2019-05-20T17:33:10.383Z,16.27
2019-05-20T17:35:39.223Z,17.20
2019-05-20T17:38:08.071Z,15.73
2019-05-20T17:40:37.292Z,17.40
2019-05-20T17:43:05.979Z,17.40
2019-05-20T17:45:34.681Z,18.13
2019-05-20T17:48:04.752Z,18.67
2019-05-20T17:50:33.488Z,20.97
2019-05-20T17:53:02.363Z,18.77
2019-05-20T17:55:32.154Z,18.03
2019-05-20T17:58:00.808Z,18.40
2019-05-20T18:00:29.549Z,18.97
2019-05-20T18:02:58.618Z,21.67
2019-05-20T18:05:27.468Z,17.63
2019-05-20T18:07:56.189Z,18.80
2019-05-20T18:10:25.395Z,21.37
2019-05-20T18:12:54.198Z,16.93
2019-05-20T18:15:22.841Z,16.97
2019-05-20T18:17:51.856Z,17.40
2019-05-20T18:20:22.495Z,28.63
2019-05-20T18:22:51.683Z,20.63
2019-05-20T18:25:31.437Z,24.70
2019-05-20T18:28:00.056Z,22.13
2019-05-20T18:30:32.474Z,24.47
2019-05-20T18:33:01.186Z,28.67
2019-05-20T18:35:31.648Z,22.80
2019-05-20T18:38:01.690Z,30.83
2019-05-20T18:40:31.161Z,25.60
2019-05-20T18:43:00.141Z,24.20
2019-05-20T18:45:28.870Z,22.57
2019-05-20T18:47:58.537Z,21.10
2019-05-20T18:50:30.631Z,24.13
2019-05-20T18:53:01.054Z,19.83
2019-05-20T18:55:29.714Z,21.57
2019-05-20T18:57:58.331Z,20.70
2019-05-20T19:00:27.327Z,22.60
2019-05-20T19:02:56.153Z,18.97
2019-05-20T19:05:26.710Z,22.53
2019-05-20T19:07:56.456Z,27.13
2019-05-20T19:10:25.501Z,19.27
2019-05-20T19:12:54.738Z,24.73
2019-05-20T19:15:24.786Z,24.07
2019-05-20T19:17:54.173Z,27.10
2019-05-20T19:20:23.318Z,18.00
2019-05-20T19:22:53.430Z,21.27
2019-05-20T19:25:22.074Z,20.33
2019-05-20T19:27:51.432Z,17.30
2019-05-20T19:30:20.311Z,20.20
2019-05-20T19:32:49.696Z,16.30
2019-05-20T19:35:18.359Z,13.47
2019-05-20T19:37:49.309Z,12.70
2019-05-20T19:40:19.435Z,16.97
2019-05-20T19:42:49.790Z,15.40
2019-05-20T19:45:18.600Z,11.83
2019-05-20T19:47:50.747Z,14.57
2019-05-20T19:50:19.488Z,11.93
2019-05-20T19:52:48.423Z,12.63
2019-05-20T19:55:18.995Z,13.87
2019-05-20T19:57:47.442Z,13.50
2019-05-20T20:00:18.628Z,12.67
2019-05-20T20:02:48.835Z,12.33
2019-05-20T20:05:17.737Z,15.60
2019-05-20T20:07:46.691Z,14.97
2019-05-20T20:10:15.569Z,13.13
2019-05-20T20:12:44.450Z,17.17
2019-05-20T20:15:20.044Z,13.43
2019-05-20T20:17:48.672Z,13.73
2019-05-20T20:20:18.050Z,13.33
2019-05-20T20:22:46.694Z,12.60
2019-05-20T20:25:15.999Z,16.67
2019-05-20T20:27:44.620Z,11.97
2019-05-20T20:30:13.494Z,13.10
2019-05-20T20:32:42.232Z,15.57
2019-05-20T20:35:11.331Z,14.70
2019-05-20T20:37:40.031Z,14.10
2019-05-20T20:40:08.869Z,15.17
2019-05-20T20:42:37.517Z,14.93
2019-05-20T20:45:07.075Z,15.00
2019-05-20T20:47:41.873Z,18.27
2019-05-20T20:50:06.541Z,15.83
2019-05-20T20:52:35.142Z,15.87
2019-05-20T20:55:04.827Z,13.03
2019-05-20T20:57:33.365Z,14.13
2019-05-20T21:00:02.109Z,14.67
2019-05-20T21:02:30.719Z,13.10
2019-05-20T21:04:59.289Z,14.17
2019-05-20T21:07:27.856Z,12.87
2019-05-20T21:09:56.478Z,14.90
2019-05-20T21:12:25.046Z,14.63
2019-05-20T21:14:53.658Z,13.07
2019-05-20T21:17:22.218Z,13.23
2019-05-20T21:19:50.788Z,11.60
2019-05-20T21:22:19.294Z,12.13
2019-05-20T21:24:47.804Z,14.10
2019-05-20T21:27:16.395Z,11.87
2019-05-20T21:29:44.977Z,12.43
2019-05-20T21:32:13.518Z,13.10
2019-05-20T21:34:42.137Z,12.03
2019-05-20T21:37:10.673Z,11.23
2019-05-20T21:39:39.253Z,16.30
2019-05-20T21:42:07.810Z,13.30
2019-05-20T21:44:36.403Z,14.10
2019-05-20T21:47:04.986Z,13.80
2019-05-20T21:49:33.554Z,12.60
2019-05-20T21:52:02.056Z,15.73
2019-05-20T21:54:30.663Z,13.50
2019-05-20T21:56:59.792Z,13.37
2019-05-20T21:59:28.343Z,15.40
2019-05-20T22:01:56.831Z,14.83
2019-05-20T22:04:25.338Z,15.60
2019-05-20T22:06:53.879Z,15.40
2019-05-20T22:09:22.420Z,15.37
2019-05-20T22:11:50.924Z,15.27
2019-05-20T22:14:19.535Z,16.40
2019-05-20T22:16:48.192Z,15.07
2019-05-20T22:19:16.686Z,16.57
2019-05-20T22:21:52.279Z,14.73
2019-05-20T22:24:20.759Z,14.43
2019-05-20T22:26:49.336Z,15.00
2019-05-20T22:29:17.819Z,17.70
2019-05-20T22:32:22.565Z,14.13
2019-05-20T22:34:53.608Z,15.70
2019-05-20T22:37:21.392Z,15.37
2019-05-20T22:39:49.944Z,16.50
2019-05-20T22:42:18.465Z,17.43
2019-05-20T22:44:47.042Z,15.70
2019-05-20T22:47:15.649Z,19.73
2019-05-20T22:49:44.131Z,16.43
2019-05-20T22:52:12.712Z,15.80
2019-05-20T22:54:41.206Z,19.57
2019-05-20T22:57:09.819Z,17.20
2019-05-20T22:59:38.374Z,15.80
2019-05-20T23:02:07.015Z,17.83
2019-05-20T23:04:35.558Z,16.77
2019-05-20T23:07:04.240Z,15.50
2019-05-20T23:09:32.809Z,16.80
2019-05-20T23:12:01.457Z,18.67
2019-05-20T23:14:30.045Z,17.30
2019-05-20T23:16:58.572Z,18.87
2019-05-20T23:19:27.117Z,19.80
2019-05-20T23:21:55.637Z,18.97
2019-05-20T23:24:24.193Z,19.07
2019-05-20T23:26:52.891Z,24.73
2019-05-20T23:29:21.443Z,21.83
2019-05-20T23:31:49.954Z,22.23
2019-05-20T23:34:18.502Z,22.97
2019-05-20T23:36:47.079Z,19.00
2019-05-20T23:39:15.645Z,21.33
2019-05-20T23:41:44.163Z,16.97
2019-05-20T23:44:12.746Z,19.03
2019-05-20T23:46:41.324Z,21.63
2019-05-20T23:49:09.819Z,16.83
2019-05-20T23:51:38.351Z,19.80
2019-05-20T23:54:06.926Z,22.10
2019-05-20T23:56:35.435Z,20.70
2019-05-20T23:59:03.998Z,21.83
